Hauptseite
METAR-TAF:

METAR-TAF

Flughäfen :

Flughafen Tan-Son-Nhat

Ho-Chi-Minh-Stadt, Vietnam

Breite: 10-49N, Länge: 106-40E, Höhe: 19 m

Beobachtung

Neuester Wetterbericht von vor 39 Minuten, um 17:30 UTC
Wind 6 kt aus Südost, variierte zwischen Ost und Süd
Temperatur 28°C
Luftfeuchtigkeit 79%
Luftdruck 1010 hPa
Sichtweite 10 km oder mehr
Leicht bewölkt in der Höhe von 1700 ft

METAR: VVTS 201730Z 13006KT 100V170 9999 FEW017 28/24 Q1010 NOSIG

Zeit: 01:09 (18:09 UTC)

Prognose

Neuester Wetterbericht von vor 1 Stunde und 9 Minuten, um 17:00 UTC
Gültige Prognose vom 20 um 18 UTC bis 21 um 24 UTC
Wind 8 kt aus Süd/Südost
Sichtweite 10 km oder mehr
Aufgelockert bewölkt in der Höhe von 1700 ft
Aufgelockert bewölkt in der Höhe von 4000 ft

TAF: VVTS 201700Z 2018/2124 15008KT 9999 SCT017 SCT040

Wetterbeobachtungen und Prognosen von mehr als 4000 Flughäfen (METAR und TAF Bericht).

Die verfügbaren Stationen werden durch gelbe und rote Markierungen auf der Karte dargestellt.

Führen Sie die Maus auf sie, um den Namen der Station zu sehen.

Darauf klicken, um die Beobachtung von Wetterbeobachtungen und Prognosen zu sehen.

Um die Karte zu ändern : klicken Sie auf den grünen Tasten mit einem schwarzen Kreuz Zum Vergrößern, auf den grünen Button mit einem Gedankenstrich zu verkleinern, oder auf die grünen Pfeile für benachbarte Karten.


METAR-TAF: